Time;durP1;ratioP1;P1;durP2;ratioP2;P2;SDS_P1;SDS_P2;PMS_P1;PMS_P2;Temp;Humidity;BMP_temperature;BMP_pressure;BME280_temperature;BME280_humidity;BME280_pressure;Samples;Min_cycle;Max_cycle;Signal;HPM_P1;HPM_P2
2021/08/15 00:00:37;;;;;;;12.23;6.82;;;18.00;90.60;;;;;;5032870;28;20460;-67
2021/08/15 00:03:03;;;;;;;16.10;7.28;;;17.90;90.40;;;;;;5051956;28;20029;-67
2021/08/15 00:05:29;;;;;;;14.82;7.22;;;17.80;90.90;;;;;;5049235;28;20083;-65
2021/08/15 00:07:54;;;;;;;11.90;6.57;;;17.60;91.30;;;;;;5051593;28;20025;-67
2021/08/15 00:10:20;;;;;;;13.88;6.75;;;17.50;91.70;;;;;;5032679;28;20044;-66
2021/08/15 00:12:46;;;;;;;12.55;6.53;;;17.60;91.50;;;;;;5050122;28;20090;-66
2021/08/15 00:15:13;;;;;;;12.73;6.68;;;17.50;91.60;;;;;;5050802;28;20025;-68
2021/08/15 00:17:39;;;;;;;12.98;6.63;;;17.50;91.70;;;;;;5050441;28;20029;-67
2021/08/15 00:20:06;;;;;;;12.25;6.55;;;17.50;91.70;;;;;;5049467;28;20021;-66
2021/08/15 00:22:32;;;;;;;13.15;6.43;;;17.40;91.80;;;;;;5033183;28;20039;-67
2021/08/15 00:24:58;;;;;;;14.25;6.70;;;17.50;91.70;;;;;;5050526;28;20479;-66
2021/08/15 00:27:23;;;;;;;11.52;6.40;;;17.60;91.40;;;;;;5068192;28;20161;-68
2021/08/15 00:29:49;;;;;;;10.70;5.95;;;17.50;91.50;;;;;;5050750;28;20033;-67
2021/08/15 00:32:15;;;;;;;13.70;6.55;;;17.60;91.30;;;;;;5048607;28;20120;-66
2021/08/15 00:34:40;;;;;;;13.73;7.43;;;17.50;91.60;;;;;;5050222;28;20037;-68
2021/08/15 00:37:06;;;;;;;12.73;7.13;;;17.40;91.90;;;;;;5051259;28;20024;-68
2021/08/15 00:39:31;;;;;;;14.90;7.50;;;17.30;91.80;;;;;;5034391;28;20027;-67
2021/08/15 00:41:58;;;;;;;14.15;7.68;;;17.50;91.30;;;;;;5035634;28;20112;-67
2021/08/15 00:44:24;;;;;;;14.77;7.63;;;17.50;91.20;;;;;;5052051;28;20040;-67
2021/08/15 00:46:49;;;;;;;14.68;7.55;;;17.60;90.90;;;;;;5050147;28;20037;-67
2021/08/15 00:49:15;;;;;;;13.27;6.95;;;17.50;91.10;;;;;;5050437;28;20526;-67
2021/08/15 00:51:40;;;;;;;17.13;8.23;;;17.40;90.90;;;;;;5050639;28;20025;-67
2021/08/15 00:54:06;;;;;;;14.93;7.82;;;17.50;91.00;;;;;;5049558;28;20033;-66
2021/08/15 00:56:32;;;;;;;14.38;7.50;;;17.40;91.00;;;;;;5047138;28;20035;-66
2021/08/15 00:59:00;;;;;;;16.23;8.00;;;17.40;91.00;;;;;;5057815;28;20436;-65
2021/08/15 01:01:25;;;;;;;14.20;7.80;;;17.50;90.80;;;;;;5061225;28;20043;-65
2021/08/15 01:03:51;;;;;;;16.13;8.02;;;17.40;90.70;;;;;;5048898;28;20025;-66
2021/08/15 01:06:17;;;;;;;15.50;7.57;;;17.30;90.90;;;;;;5032630;28;20036;-66
2021/08/15 01:08:42;;;;;;;15.43;8.18;;;17.40;90.80;;;;;;5054753;28;20052;-66
2021/08/15 01:11:09;;;;;;;15.65;7.68;;;17.50;90.60;;;;;;5034187;28;20028;-66
2021/08/15 01:13:37;;;;;;;13.73;7.80;;;17.40;90.70;;;;;;5028849;28;20100;-65
2021/08/15 01:16:07;;;;;;;13.40;8.13;;;17.50;90.50;;;;;;5050367;28;20116;-65
2021/08/15 01:18:35;;;;;;;15.70;8.35;;;17.50;90.60;;;;;;5053891;28;20028;-66
2021/08/15 01:21:06;;;;;;;16.23;8.10;;;17.40;90.80;;;;;;5047814;28;20120;-66
2021/08/15 01:23:33;;;;;;;21.20;9.45;;;17.40;90.70;;;;;;5070861;28;20067;-66
2021/08/15 01:26:01;;;;;;;17.35;8.30;;;17.30;90.70;;;;;;5049039;28;20120;-65
2021/08/15 01:28:27;;;;;;;14.27;8.00;;;17.30;91.00;;;;;;5053154;28;20029;-66
2021/08/15 01:30:53;;;;;;;15.63;8.38;;;17.10;91.20;;;;;;5052263;28;20029;-66
2021/08/15 01:33:37;;;;;;;16.17;7.90;;;17.30;91.00;;;;;;5052293;28;20482;-66
2021/08/15 01:36:04;;;;;;;15.88;8.55;;;17.20;91.00;;;;;;5053964;28;20055;-64
2021/08/15 01:38:32;;;;;;;17.05;8.82;;;17.30;90.90;;;;;;5036269;28;20108;-66
2021/08/15 01:40:58;;;;;;;15.27;7.80;;;17.20;91.10;;;;;;5034624;28;20036;-66
2021/08/15 01:43:25;;;;;;;18.02;8.88;;;17.20;91.30;;;;;;5052917;28;20029;-65
2021/08/15 01:45:51;;;;;;;16.70;8.40;;;17.20;91.20;;;;;;5053842;28;20493;-64
2021/08/15 01:48:18;;;;;;;15.27;8.05;;;17.30;91.10;;;;;;5054330;28;20082;-66
2021/08/15 01:50:44;;;;;;;16.48;8.60;;;17.40;90.60;;;;;;5052563;28;20028;-66
2021/08/15 01:53:17;;;;;;;15.57;9.23;;;17.30;90.80;;;;;;5052577;28;20047;-66
2021/08/15 01:55:44;;;;;;;14.18;8.18;;;17.20;90.90;;;;;;5053339;28;20398;-66
2021/08/15 01:58:10;;;;;;;16.67;8.55;;;17.10;91.30;;;;;;5064093;28;20029;-65
2021/08/15 02:00:37;;;;;;;16.90;8.88;;;17.10;91.40;;;;;;5045339;28;20025;-66
2021/08/15 02:03:03;;;;;;;15.70;9.25;;;17.20;91.30;;;;;;5053633;28;20485;-66
2021/08/15 02:05:29;;;;;;;14.85;8.63;;;17.00;91.40;;;;;;5035652;28;20033;-65
2021/08/15 02:07:55;;;;;;;17.75;9.38;;;17.00;91.60;;;;;;5035644;28;20043;-66
2021/08/15 02:10:28;;;;;;;15.07;8.65;;;16.80;91.90;;;;;;5052827;28;20478;-65
2021/08/15 02:12:56;;;;;;;15.85;9.00;;;16.70;92.20;;;;;;5034865;28;20436;-65
2021/08/15 02:15:21;;;;;;;18.63;9.18;;;16.70;92.40;;;;;;5027801;28;20558;-65
2021/08/15 02:17:47;;;;;;;19.00;9.25;;;16.70;92.40;;;;;;5053264;28;20021;-66
2021/08/15 02:20:15;;;;;;;18.05;8.75;;;16.60;92.60;;;;;;5039310;28;20116;-64
2021/08/15 02:22:41;;;;;;;15.65;9.25;;;16.60;92.80;;;;;;5035095;28;20024;-65
2021/08/15 02:25:10;;;;;;;16.17;9.18;;;16.60;92.60;;;;;;5051728;28;20024;-65
2021/08/15 02:27:36;;;;;;;18.80;9.52;;;16.50;92.70;;;;;;5050870;28;20025;-66
2021/08/15 02:30:03;;;;;;;19.35;9.32;;;16.50;93.20;;;;;;5068807;28;20017;-66
2021/08/15 02:32:29;;;;;;;14.93;8.95;;;16.50;93.00;;;;;;5052934;28;20074;-65
2021/08/15 02:34:54;;;;;;;17.45;9.27;;;16.40;93.00;;;;;;5052521;28;20029;-65
2021/08/15 02:37:20;;;;;;;18.60;9.93;;;16.40;93.10;;;;;;5052081;28;20028;-65
2021/08/15 02:39:45;;;;;;;19.35;9.40;;;16.40;93.20;;;;;;5052206;28;20029;-65
2021/08/15 02:42:11;;;;;;;18.20;9.32;;;16.40;93.00;;;;;;5052077;28;20033;-64
2021/08/15 02:44:37;;;;;;;14.52;8.18;;;16.40;93.20;;;;;;5053020;28;20025;-65
2021/08/15 02:47:02;;;;;;;19.23;8.95;;;16.40;93.00;;;;;;5035274;28;20021;-68
2021/08/15 02:49:28;;;;;;;16.50;8.57;;;16.40;93.10;;;;;;5051315;28;20033;-65
2021/08/15 02:51:54;;;;;;;17.85;9.23;;;16.40;93.00;;;;;;5052233;28;20040;-65
2021/08/15 02:54:19;;;;;;;16.10;9.32;;;16.30;93.20;;;;;;5034761;28;20021;-65
2021/08/15 02:56:44;;;;;;;17.40;8.70;;;16.30;93.20;;;;;;5051487;28;20025;-66
2021/08/15 02:59:11;;;;;;;15.77;8.52;;;16.30;93.20;;;;;;5052767;28;20033;-66
2021/08/15 03:01:38;;;;;;;18.50;8.88;;;16.40;93.10;;;;;;5052096;28;20102;-66
2021/08/15 03:04:03;;;;;;;15.82;8.90;;;16.40;92.70;;;;;;5052602;28;20464;-65
2021/08/15 03:06:29;;;;;;;17.48;9.73;;;16.50;92.40;;;;;;5052441;28;20033;-65
2021/08/15 03:08:54;;;;;;;18.08;8.98;;;16.50;92.50;;;;;;5051771;28;20013;-66
2021/08/15 03:11:20;;;;;;;16.48;9.68;;;16.50;92.70;;;;;;5050224;28;20029;-66
2021/08/15 03:13:45;;;;;;;17.85;9.65;;;16.50;92.60;;;;;;5052927;28;20057;-65
2021/08/15 03:16:11;;;;;;;16.60;9.05;;;16.50;92.50;;;;;;5052016;28;20025;-66
2021/08/15 03:18:36;;;;;;;15.75;9.18;;;16.50;92.60;;;;;;5052411;28;20025;-65
2021/08/15 03:21:02;;;;;;;17.83;10.00;;;16.40;92.80;;;;;;5052419;28;20019;-66
2021/08/15 03:23:28;;;;;;;17.45;9.32;;;16.40;92.60;;;;;;5052673;28;20025;-65
2021/08/15 03:25:53;;;;;;;24.05;10.20;;;16.40;92.90;;;;;;5055130;28;20051;-65
2021/08/15 03:28:19;;;;;;;19.70;9.60;;;16.40;93.00;;;;;;5072640;28;20103;-66
2021/08/15 03:30:44;;;;;;;17.77;9.82;;;16.40;93.00;;;;;;5065709;28;20028;-67
2021/08/15 03:33:10;;;;;;;18.42;9.38;;;16.40;92.80;;;;;;5051695;28;20558;-65
2021/08/15 03:35:35;;;;;;;16.95;9.63;;;16.40;92.90;;;;;;5052475;28;20033;-66
2021/08/15 03:38:01;;;;;;;16.45;9.85;;;16.30;93.00;;;;;;5034477;28;20108;-67
2021/08/15 03:40:26;;;;;;;21.23;9.95;;;16.30;93.20;;;;;;5051447;28;20599;-65
2021/08/15 03:42:52;;;;;;;19.83;10.70;;;16.20;93.30;;;;;;5052289;28;20021;-66
2021/08/15 03:45:17;;;;;;;16.88;10.18;;;16.20;93.20;;;;;;5034345;28;20032;-66
2021/08/15 03:47:43;;;;;;;18.58;10.80;;;16.30;93.20;;;;;;5051683;28;20105;-65
2021/08/15 03:50:08;;;;;;;21.13;11.45;;;16.20;93.30;;;;;;5033099;28;20029;-65
2021/08/15 03:52:41;;;;;;;25.20;12.32;;;16.20;93.30;;;;;;5051525;28;20116;-66
2021/08/15 03:55:10;;;;;;;22.42;11.27;;;16.30;93.20;;;;;;5051505;28;20033;-66
2021/08/15 03:57:36;;;;;;;19.73;11.32;;;16.30;93.10;;;;;;5052184;28;20028;-66
2021/08/15 04:00:04;;;;;;;18.58;10.52;;;16.30;93.20;;;;;;5050931;28;20482;-66
2021/08/15 04:02:30;;;;;;;18.88;10.52;;;16.30;93.10;;;;;;5033663;28;20498;-65
2021/08/15 04:04:55;;;;;;;19.50;10.68;;;16.30;93.20;;;;;;5051042;28;20107;-65
2021/08/15 04:07:20;;;;;;;19.55;10.25;;;16.20;93.40;;;;;;5051283;28;20028;-66
2021/08/15 04:09:46;;;;;;;21.55;11.13;;;16.10;93.50;;;;;;5050930;28;20100;-66
2021/08/15 04:12:20;;;;;;;19.95;11.15;;;16.20;93.20;;;;;;5068055;28;20452;-66
2021/08/15 04:14:45;;;;;;;21.13;11.80;;;16.20;93.10;;;;;;5065168;28;20036;-66
2021/08/15 04:17:11;;;;;;;18.20;10.68;;;16.20;93.30;;;;;;5063353;28;20025;-66
2021/08/15 04:19:36;;;;;;;25.73;11.63;;;16.30;93.10;;;;;;5064666;28;20037;-68
2021/08/15 04:22:02;;;;;;;19.55;11.30;;;16.30;93.10;;;;;;5067368;28;20055;-66
2021/08/15 04:24:28;;;;;;;22.15;11.48;;;16.40;92.90;;;;;;5063631;28;20067;-66
2021/08/15 04:26:53;;;;;;;20.88;10.93;;;16.40;92.70;;;;;;5058917;28;20091;-66
2021/08/15 04:29:19;;;;;;;27.52;12.18;;;16.50;93.00;;;;;;5061724;28;20029;-66
2021/08/15 04:31:44;;;;;;;19.30;10.95;;;16.40;92.70;;;;;;5056881;28;20021;-67
2021/08/15 04:34:10;;;;;;;19.67;12.13;;;16.50;92.80;;;;;;5047055;28;20033;-66
2021/08/15 04:36:36;;;;;;;21.20;11.30;;;16.60;92.40;;;;;;5058858;28;20036;-65
2021/08/15 04:39:02;;;;;;;20.98;11.70;;;16.70;92.10;;;;;;5047609;28;20087;-66
2021/08/15 04:41:28;;;;;;;19.67;11.45;;;16.70;92.10;;;;;;5043072;28;20477;-67
2021/08/15 04:43:53;;;;;;;20.00;11.63;;;16.70;92.00;;;;;;5049771;28;20112;-66
2021/08/15 04:46:19;;;;;;;18.95;11.32;;;16.80;91.90;;;;;;5045754;28;20025;-65
2021/08/15 04:48:44;;;;;;;23.30;12.40;;;16.70;92.20;;;;;;5063640;28;20035;-67
2021/08/15 04:51:10;;;;;;;20.67;12.32;;;16.80;92.30;;;;;;5065787;28;20025;-66
2021/08/15 04:53:35;;;;;;;21.10;12.23;;;16.90;91.80;;;;;;5064494;28;20043;-66
2021/08/15 04:56:02;;;;;;;22.65;11.80;;;16.80;91.90;;;;;;5067506;28;20024;-66
2021/08/15 04:58:27;;;;;;;21.63;12.20;;;16.90;91.70;;;;;;5066135;28;20134;-66
2021/08/15 05:00:53;;;;;;;22.88;12.18;;;17.00;91.70;;;;;;5066871;28;20131;-67
2021/08/15 05:03:19;;;;;;;20.88;12.75;;;16.90;91.70;;;;;;5058448;28;20413;-67
2021/08/15 05:05:44;;;;;;;23.90;12.93;;;16.90;91.60;;;;;;5043269;28;20112;-66
2021/08/15 05:08:11;;;;;;;21.40;12.68;;;16.90;91.80;;;;;;5040141;28;20159;-64
2021/08/15 05:10:36;;;;;;;19.35;12.10;;;17.00;91.50;;;;;;5039354;28;20116;-67
2021/08/15 05:13:03;;;;;;;24.45;13.00;;;17.00;91.70;;;;;;5045887;28;20159;-70
2021/08/15 05:15:28;;;;;;;21.73;12.52;;;17.10;91.30;;;;;;5048911;28;20017;-66
2021/08/15 05:17:54;;;;;;;22.55;12.57;;;17.20;91.20;;;;;;5056554;28;20850;-69
2021/08/15 05:20:19;;;;;;;24.00;12.50;;;17.20;91.10;;;;;;5059036;28;20025;-63
2021/08/15 05:22:45;;;;;;;21.10;12.82;;;17.20;91.10;;;;;;5051400;28;20612;-67
2021/08/15 05:25:11;;;;;;;20.92;13.13;;;17.20;91.10;;;;;;5047223;28;20414;-67
2021/08/15 05:27:37;;;;;;;21.67;13.05;;;17.30;91.00;;;;;;5027059;28;20029;-69
2021/08/15 05:30:03;;;;;;;22.15;12.85;;;17.20;91.10;;;;;;5026078;28;20030;-68
2021/08/15 05:32:28;;;;;;;23.48;13.07;;;17.20;91.10;;;;;;5027456;28;20192;-68
2021/08/15 05:34:54;;;;;;;19.58;12.65;;;17.40;90.70;;;;;;5030000;28;20032;-71
2021/08/15 05:37:20;;;;;;;21.60;12.95;;;17.80;90.40;;;;;;5040264;28;20033;-66
2021/08/15 05:39:45;;;;;;;24.08;12.52;;;18.00;89.20;;;;;;5041716;28;20009;-67
2021/08/15 05:42:11;;;;;;;21.33;12.90;;;18.20;88.40;;;;;;5037229;28;20038;-68
2021/08/15 05:44:36;;;;;;;22.67;13.27;;;18.40;87.70;;;;;;5040954;28;20720;-66
2021/08/15 05:47:04;;;;;;;22.77;12.90;;;18.50;86.70;;;;;;5047011;28;20041;-65
2021/08/15 05:49:31;;;;;;;23.48;12.20;;;18.70;86.20;;;;;;5045394;28;20394;-66
2021/08/15 05:51:57;;;;;;;22.52;13.18;;;18.90;86.00;;;;;;5036799;28;20391;-66
2021/08/15 05:54:23;;;;;;;18.23;12.10;;;19.00;84.30;;;;;;5031886;28;20083;-66
2021/08/15 05:56:48;;;;;;;20.63;12.63;;;18.80;84.70;;;;;;5031900;28;20405;-66
2021/08/15 05:59:14;;;;;;;20.40;11.73;;;18.90;85.90;;;;;;5032098;28;20025;-67
2021/08/15 06:01:39;;;;;;;19.00;11.82;;;19.10;83.90;;;;;;5032329;28;20083;-66
2021/08/15 06:04:05;;;;;;;21.55;12.10;;;19.00;84.90;;;;;;5032072;28;20030;-65
2021/08/15 06:06:30;;;;;;;19.98;12.20;;;18.90;84.90;;;;;;5033254;28;20038;-68
2021/08/15 06:08:56;;;;;;;21.73;11.82;;;18.90;84.40;;;;;;5033284;28;20514;-65
2021/08/15 06:11:22;;;;;;;19.25;12.13;;;18.80;85.10;;;;;;5032344;28;20037;-66
2021/08/15 06:13:48;;;;;;;20.33;11.95;;;18.70;85.10;;;;;;5032970;28;20090;-65
2021/08/15 06:16:14;;;;;;;18.05;11.75;;;18.80;86.20;;;;;;5032543;28;20022;-66
2021/08/15 06:18:40;;;;;;;18.92;11.60;;;18.70;85.40;;;;;;5031664;28;20172;-66
2021/08/15 06:21:05;;;;;;;24.90;12.50;;;18.80;84.80;;;;;;5031258;28;20028;-66
2021/08/15 06:23:31;;;;;;;22.60;11.60;;;19.00;85.00;;;;;;5032437;28;20493;-66
2021/08/15 06:25:57;;;;;;;18.65;11.07;;;19.50;83.20;;;;;;5036581;28;20028;-66
2021/08/15 06:28:23;;;;;;;20.20;11.80;;;19.70;81.50;;;;;;5052702;28;20104;-65
2021/08/15 06:30:48;;;;;;;20.95;11.68;;;19.90;80.30;;;;;;5050406;28;20115;-65
2021/08/15 06:33:14;;;;;;;20.85;11.88;;;20.00;79.90;;;;;;5050993;28;20014;-67
2021/08/15 06:35:39;;;;;;;21.05;12.07;;;20.10;79.30;;;;;;5051932;28;20029;-66
2021/08/15 06:38:05;;;;;;;20.30;11.77;;;20.10;79.50;;;;;;5050804;28;20482;-65
2021/08/15 06:40:30;;;;;;;19.77;11.68;;;19.90;79.70;;;;;;5051852;28;20025;-67
2021/08/15 06:43:10;;;;;;;20.15;12.02;;;19.80;80.40;;;;;;5051117;28;20390;-65
2021/08/15 06:45:37;;;;;;;19.52;12.02;;;19.80;80.50;;;;;;5050663;28;20036;-66
2021/08/15 06:48:03;;;;;;;23.98;12.13;;;19.80;80.80;;;;;;5051022;28;20029;-66
2021/08/15 06:50:29;;;;;;;21.85;12.50;;;19.90;81.00;;;;;;5050408;28;20486;-68
2021/08/15 06:52:54;;;;;;;18.58;11.70;;;19.90;80.60;;;;;;5051531;28;20032;-66
2021/08/15 06:55:20;;;;;;;21.65;12.75;;;19.90;80.90;;;;;;5050978;28;20454;-66
2021/08/15 06:57:45;;;;;;;20.50;11.63;;;19.90;78.80;;;;;;5052260;28;20437;-66
2021/08/15 07:00:11;;;;;;;20.40;11.75;;;19.70;80.00;;;;;;5050199;28;20449;-67
2021/08/15 07:02:38;;;;;;;21.42;12.13;;;19.70;80.70;;;;;;5052025;28;20025;-65
2021/08/15 07:05:09;;;;;;;20.85;11.80;;;19.90;80.50;;;;;;5050650;28;20017;-66
2021/08/15 07:07:35;;;;;;;20.75;12.00;;;19.80;79.50;;;;;;5051305;28;20375;-67
2021/08/15 07:10:00;;;;;;;20.95;11.93;;;19.90;79.80;;;;;;5051570;28;20043;-66
2021/08/15 07:12:26;;;;;;;21.58;12.25;;;19.70;82.00;;;;;;5050392;28;20021;-66
2021/08/15 07:14:52;;;;;;;20.83;11.80;;;19.70;80.40;;;;;;5051337;28;20028;-66
2021/08/15 07:17:17;;;;;;;20.48;12.07;;;19.70;80.90;;;;;;5051782;28;20025;-66
2021/08/15 07:19:43;;;;;;;20.00;11.80;;;19.70;80.50;;;;;;5050306;28;20486;-66
2021/08/15 07:22:09;;;;;;;20.75;12.13;;;19.60;81.50;;;;;;5050740;28;20025;-66
2021/08/15 07:24:35;;;;;;;20.92;11.30;;;19.70;81.10;;;;;;5051725;28;20033;-67
2021/08/15 07:27:00;;;;;;;23.85;12.18;;;19.80;80.00;;;;;;5037466;28;20509;-66
2021/08/15 07:29:26;;;;;;;20.83;11.57;;;19.80;81.70;;;;;;5031181;28;20502;-67
2021/08/15 07:31:52;;;;;;;20.27;11.10;;;19.90;79.60;;;;;;5031583;28;20490;-66
2021/08/15 07:34:19;;;;;;;19.48;11.68;;;19.90;79.60;;;;;;5031471;28;20021;-67
2021/08/15 07:36:45;;;;;;;18.60;11.50;;;19.90;79.50;;;;;;5030965;28;20048;-66
2021/08/15 07:39:11;;;;;;;18.70;11.77;;;19.90;79.70;;;;;;5031470;28;20076;-65
2021/08/15 07:41:37;;;;;;;18.95;11.00;;;19.90;79.20;;;;;;5031081;28;20026;-66
2021/08/15 07:44:02;;;;;;;19.45;12.10;;;20.00;79.40;;;;;;5029741;28;20029;-66
2021/08/15 07:46:29;;;;;;;19.95;11.07;;;20.10;79.00;;;;;;5031122;28;20128;-66
2021/08/15 07:48:55;;;;;;;18.90;11.13;;;20.20;77.70;;;;;;5031307;28;20032;-66
2021/08/15 07:51:21;;;;;;;19.60;10.82;;;20.60;76.80;;;;;;5030380;28;20026;-65
2021/08/15 07:53:46;;;;;;;17.17;10.65;;;21.30;74.00;;;;;;5031435;28;20100;-67
2021/08/15 07:56:12;;;;;;;17.05;10.75;;;21.80;74.60;;;;;;5031303;28;20053;-66
2021/08/15 07:58:37;;;;;;;19.35;10.57;;;22.30;69.10;;;;;;5029543;28;20493;-66
2021/08/15 08:01:03;;;;;;;18.08;10.77;;;22.20;69.40;;;;;;5030883;28;20030;-66
2021/08/15 08:03:28;;;;;;;16.23;11.00;;;21.90;70.20;;;;;;5030311;28;20075;-67
2021/08/15 08:05:54;;;;;;;15.55;10.27;;;21.60;71.20;;;;;;5029094;28;20059;-67
2021/08/15 08:08:20;;;;;;;14.93;9.93;;;21.60;71.40;;;;;;5031045;28;20109;-66
2021/08/15 08:10:47;;;;;;;18.05;10.38;;;21.60;71.30;;;;;;5028548;28;20029;-66
2021/08/15 08:13:13;;;;;;;17.77;11.13;;;21.50;71.60;;;;;;5030935;28;20101;-66
2021/08/15 08:15:39;;;;;;;17.75;10.25;;;21.70;71.60;;;;;;5030712;28;20100;-67
2021/08/15 08:18:06;;;;;;;19.38;9.60;;;21.70;71.50;;;;;;5031116;28;20025;-67
2021/08/15 08:20:36;;;;;;;16.70;9.43;;;21.80;71.10;;;;;;5029429;28;20037;-67
2021/08/15 08:23:09;;;;;;;15.82;9.65;;;21.90;71.30;;;;;;5030624;28;20036;-66
2021/08/15 08:25:36;;;;;;;15.90;9.10;;;22.00;70.80;;;;;;5031957;28;20079;-66
2021/08/15 08:28:02;;;;;;;16.55;8.98;;;22.10;69.80;;;;;;5049439;28;20025;-67
2021/08/15 08:30:28;;;;;;;16.60;9.35;;;22.10;69.70;;;;;;5050083;28;20040;-67
2021/08/15 08:32:54;;;;;;;16.08;9.15;;;22.40;68.50;;;;;;5049145;28;20398;-67
2021/08/15 08:35:20;;;;;;;17.20;10.40;;;22.60;68.30;;;;;;5049508;28;20029;-66
2021/08/15 08:37:47;;;;;;;17.15;10.20;;;22.60;68.10;;;;;;5050257;28;20025;-66
2021/08/15 08:40:18;;;;;;;13.68;8.35;;;22.50;68.20;;;;;;5049240;28;20079;-67
2021/08/15 08:42:45;;;;;;;13.63;7.95;;;22.40;68.70;;;;;;5049531;28;20021;-66
2021/08/15 08:45:14;;;;;;;12.93;8.20;;;22.60;68.00;;;;;;5050328;28;20025;-66
2021/08/15 08:47:41;;;;;;;16.45;7.90;;;22.70;67.40;;;;;;5049239;28;20021;-66
2021/08/15 08:50:07;;;;;;;15.82;8.38;;;22.60;68.30;;;;;;5048969;28;20585;-66
2021/08/15 08:52:32;;;;;;;11.82;7.57;;;23.10;67.30;;;;;;5049869;28;20123;-66
2021/08/15 08:54:59;;;;;;;12.57;7.40;;;23.40;65.40;;;;;;5050687;28;20051;-65
2021/08/15 08:57:25;;;;;;;13.25;7.50;;;23.30;65.30;;;;;;5050217;28;20032;-63
2021/08/15 08:59:52;;;;;;;14.55;7.15;;;23.10;66.90;;;;;;5053782;28;20029;-66
2021/08/15 09:02:17;;;;;;;13.60;7.63;;;22.70;67.90;;;;;;5052647;28;20112;-66
2021/08/15 09:04:43;;;;;;;15.18;8.20;;;22.80;68.10;;;;;;5053080;28;20129;-66
2021/08/15 09:07:14;;;;;;;14.25;8.52;;;22.70;69.20;;;;;;5053820;28;20028;-66
2021/08/15 09:09:49;;;;;;;13.00;7.90;;;23.30;66.30;;;;;;5054308;28;20147;-66
2021/08/15 09:12:15;;;;;;;12.70;6.85;;;23.60;64.70;;;;;;5053585;28;20112;-66
2021/08/15 09:14:40;;;;;;;12.50;6.95;;;23.80;64.10;;;;;;5053536;28;20629;-66
2021/08/15 09:17:08;;;;;;;13.50;7.20;;;23.50;65.10;;;;;;5054034;28;20078;-66
2021/08/15 09:19:50;;;;;;;11.60;7.00;;;23.60;65.70;;;;;;5054019;28;20509;-66
2021/08/15 09:22:26;;;;;;;14.52;7.10;;;23.60;64.50;;;;;;5053396;28;20033;-67
2021/08/15 09:25:17;;;;;;;14.85;7.38;;;23.80;64.80;;;;;;5053888;28;20401;-65
2021/08/15 09:27:54;;;;;;;14.68;8.02;;;23.70;65.00;;;;;;5033470;28;20079;-66
2021/08/15 09:30:30;;;;;;;12.70;7.32;;;24.10;63.90;;;;;;5033655;28;20022;-67
2021/08/15 09:33:00;;;;;;;14.00;6.95;;;24.50;62.70;;;;;;5033939;28;20032;-65
2021/08/15 09:35:30;;;;;;;13.50;6.88;;;23.80;64.70;;;;;;5033303;28;20025;-67
2021/08/15 09:38:03;;;;;;;10.32;6.18;;;23.70;65.30;;;;;;5033797;28;20021;-66
2021/08/15 09:40:32;;;;;;;11.80;6.10;;;24.20;63.10;;;;;;5048702;28;20071;-67
2021/08/15 09:42:59;;;;;;;12.18;7.05;;;24.10;62.70;;;;;;5048564;28;20125;-66
2021/08/15 09:45:44;;;;;;;12.38;6.93;;;24.60;63.20;;;;;;5048972;28;20112;-67
2021/08/15 09:48:18;;;;;;;14.15;6.22;;;25.00;61.20;;;;;;5033546;28;20033;-65
2021/08/15 09:51:14;;;;;;;10.88;5.95;;;25.40;60.00;;;;;;5032561;28;20097;-66
2021/08/15 09:54:00;;;;;;;11.32;5.82;;;24.80;61.50;;;;;;5048609;28;20068;-66
2021/08/15 09:56:37;;;;;;;10.13;5.00;;;24.90;61.70;;;;;;5048791;28;20386;-66
2021/08/15 09:59:14;;;;;;;11.25;5.70;;;25.40;59.40;;;;;;5032953;28;20156;-68
2021/08/15 10:01:47;;;;;;;13.35;5.45;;;25.40;59.20;;;;;;5032904;28;20025;-66
2021/08/15 10:04:14;;;;;;;9.05;5.00;;;25.50;58.00;;;;;;5048773;28;20510;-66
2021/08/15 10:06:42;;;;;;;12.60;5.43;;;25.40;58.30;;;;;;5048122;28;20486;-67
2021/08/15 10:09:07;;;;;;;12.88;6.00;;;25.40;58.70;;;;;;5033350;28;20048;-68
2021/08/15 10:11:34;;;;;;;9.45;4.72;;;25.50;58.20;;;;;;5032624;28;20033;-67
2021/08/15 10:14:02;;;;;;;12.23;5.10;;;25.70;57.90;;;;;;5032448;28;20041;-66
2021/08/15 10:16:40;;;;;;;10.70;5.53;;;25.20;58.70;;;;;;5032966;28;20479;-67
2021/08/15 10:19:12;;;;;;;10.65;5.05;;;25.70;57.60;;;;;;5032593;28;20109;-67
2021/08/15 10:21:46;;;;;;;10.02;4.40;;;25.30;58.40;;;;;;5048026;28;20032;-67
2021/08/15 10:24:14;;;;;;;9.75;4.88;;;25.60;57.30;;;;;;5048422;28;20033;-67
2021/08/15 10:26:46;;;;;;;10.45;4.78;;;25.30;58.50;;;;;;5043617;28;20032;-66
2021/08/15 10:29:30;;;;;;;9.38;4.30;;;24.20;62.00;;;;;;5052896;28;20033;-66
2021/08/15 10:32:15;;;;;;;9.80;4.60;;;25.00;59.10;;;;;;5052173;28;20027;-67
2021/08/15 10:34:50;;;;;;;10.30;4.68;;;24.90;59.10;;;;;;5052041;28;20032;-66
2021/08/15 10:37:25;;;;;;;10.38;4.50;;;25.30;58.70;;;;;;5052513;28;20029;-66
2021/08/15 10:40:05;;;;;;;10.82;4.57;;;25.40;59.30;;;;;;5052380;28;20452;-65
2021/08/15 10:42:41;;;;;;;9.50;4.30;;;25.10;59.40;;;;;;5052033;28;20036;-66
2021/08/15 10:45:15;;;;;;;10.63;4.30;;;25.00;59.50;;;;;;5052360;28;20052;-66
2021/08/15 10:47:41;;;;;;;10.70;4.70;;;25.30;59.00;;;;;;5052325;28;20032;-66
2021/08/15 10:50:09;;;;;;;9.10;4.15;;;24.90;60.30;;;;;;5051540;28;20021;-67
2021/08/15 10:52:42;;;;;;;9.25;4.07;;;24.50;61.30;;;;;;5051933;28;20028;-66
2021/08/15 10:55:15;;;;;;;9.55;4.60;;;24.00;63.10;;;;;;5050955;28;20145;-66
2021/08/15 10:57:48;;;;;;;9.65;4.93;;;23.70;64.60;;;;;;5051765;28;20029;-66
2021/08/15 11:00:29;;;;;;;11.50;4.43;;;24.20;62.80;;;;;;5051862;28;20021;-67
2021/08/15 11:02:59;;;;;;;10.63;4.38;;;24.30;62.30;;;;;;5052201;28;20481;-66
2021/08/15 11:05:37;;;;;;;10.52;4.18;;;24.30;62.90;;;;;;5051603;28;20041;-66
2021/08/15 11:08:03;;;;;;;8.20;3.75;;;23.80;64.00;;;;;;5051901;28;20021;-68
2021/08/15 11:11:06;;;;;;;9.90;4.72;;;23.70;64.40;;;;;;5051307;28;20025;-66
2021/08/15 11:13:32;;;;;;;9.25;3.75;;;23.90;63.40;;;;;;5051811;28;20485;-66
2021/08/15 11:16:22;;;;;;;9.43;4.18;;;23.80;63.70;;;;;;5050772;28;20394;-66
2021/08/15 11:19:07;;;;;;;7.72;3.58;;;23.70;64.00;;;;;;5051355;28;20482;-66
2021/08/15 11:22:04;;;;;;;8.25;3.85;;;24.30;61.30;;;;;;5050758;28;20032;-66
2021/08/15 11:24:31;;;;;;;7.93;3.75;;;23.90;62.20;;;;;;5050712;28;20389;-66
2021/08/15 11:26:57;;;;;;;8.35;3.70;;;23.70;63.60;;;;;;5036288;28;20400;-65
2021/08/15 11:29:24;;;;;;;8.13;3.40;;;24.00;62.50;;;;;;5031673;28;20083;-65
2021/08/15 11:31:52;;;;;;;9.20;4.18;;;23.90;63.60;;;;;;5031180;28;20033;-66
2021/08/15 11:34:17;;;;;;;9.02;3.47;;;23.80;63.80;;;;;;5030846;28;20029;-66
2021/08/15 11:36:43;;;;;;;8.38;3.67;;;23.80;63.80;;;;;;5031596;28;20026;-66
2021/08/15 11:39:09;;;;;;;7.30;3.25;;;24.00;63.20;;;;;;5030271;28;20108;-66
2021/08/15 11:41:36;;;;;;;8.77;3.40;;;24.30;63.40;;;;;;5029519;28;20025;-67
2021/08/15 11:44:02;;;;;;;11.57;3.53;;;24.70;62.20;;;;;;5030281;28;20033;-66
2021/08/15 11:46:28;;;;;;;10.10;3.65;;;25.30;59.70;;;;;;5031393;28;20079;-65
2021/08/15 11:48:54;;;;;;;8.48;3.13;;;25.50;58.80;;;;;;5029500;28;20025;-66
2021/08/15 11:51:20;;;;;;;6.97;2.75;;;25.30;57.90;;;;;;5030912;28;20111;-66
2021/08/15 11:53:47;;;;;;;7.63;3.40;;;25.30;58.10;;;;;;5031181;28;20028;-66
2021/08/15 11:56:15;;;;;;;6.72;2.55;;;24.90;58.10;;;;;;5030827;28;20075;-67
2021/08/15 11:58:48;;;;;;;8.45;2.88;;;25.20;56.00;;;;;;5031276;28;20048;-65
2021/08/15 12:01:15;;;;;;;7.75;2.92;;;25.40;56.60;;;;;;5030708;28;20052;-66
2021/08/15 12:03:41;;;;;;;7.07;2.75;;;25.40;56.30;;;;;;5030749;28;20494;-66
2021/08/15 12:06:07;;;;;;;8.25;3.03;;;24.80;59.10;;;;;;5031240;28;20040;-66
2021/08/15 12:08:41;;;;;;;8.00;3.38;;;24.50;59.50;;;;;;5031305;28;20025;-66
2021/08/15 12:11:30;;;;;;;7.63;2.58;;;23.90;62.10;;;;;;5030172;28;20118;-66
2021/08/15 12:14:13;;;;;;;7.68;2.78;;;24.20;60.40;;;;;;5030862;28;20075;-65
2021/08/15 12:16:50;;;;;;;5.65;2.40;;;25.20;57.20;;;;;;5031123;28;20021;-66
2021/08/15 12:19:28;;;;;;;7.97;2.60;;;25.30;56.70;;;;;;5030638;28;20018;-66
2021/08/15 12:21:55;;;;;;;7.38;2.85;;;25.50;56.60;;;;;;5030609;28;20029;-67
2021/08/15 12:24:29;;;;;;;7.38;2.70;;;24.80;58.40;;;;;;5030980;28;20025;-66
2021/08/15 12:27:07;;;;;;;6.43;2.45;;;23.90;61.60;;;;;;5043850;28;20025;-66
2021/08/15 12:29:38;;;;;;;6.90;2.55;;;23.50;62.80;;;;;;5050929;28;20025;-66
2021/08/15 12:32:03;;;;;;;5.82;2.47;;;23.90;61.80;;;;;;5050846;28;20029;-66
2021/08/15 12:34:30;;;;;;;6.15;2.17;;;23.60;62.90;;;;;;5054171;28;20025;-67
2021/08/15 12:36:58;;;;;;;6.45;2.65;;;24.00;61.60;;;;;;5055095;28;20529;-66
2021/08/15 12:39:33;;;;;;;6.68;2.63;;;24.20;60.80;;;;;;5053467;28;20029;-66